Time;durP1;ratioP1;P1;durP2;ratioP2;P2;SDS_P1;SDS_P2;PMS_P1;PMS_P2;Temp;Humidity;BMP_temperature;BMP_pressure;BME280_temperature;BME280_humidity;BME280_pressure;Samples;Min_cycle;Max_cycle;Signal;HPM_P1;HPM_P2
2021/12/03 00:00:45;;;;;;;6.35;3.65;;;-0.10;99.90;;;;;;5021410;28;20037;-89
2021/12/03 00:03:12;;;;;;;5.85;3.97;;;-0.10;99.90;;;;;;5019017;28;20034;-88
2021/12/03 00:05:41;;;;;;;8.05;4.40;;;0.00;99.90;;;;;;5016654;28;20064;-86
2021/12/03 00:08:09;;;;;;;6.43;4.50;;;0.00;99.90;;;;;;5019675;28;20033;-89
2021/12/03 00:10:37;;;;;;;7.57;4.47;;;0.00;99.90;;;;;;5025446;28;20120;-89
2021/12/03 00:13:05;;;;;;;7.05;4.38;;;0.00;99.90;;;;;;5026294;28;20101;-91
2021/12/03 00:15:31;;;;;;;6.88;4.90;;;0.00;99.90;;;;;;5022392;28;20021;-89
2021/12/03 00:17:56;;;;;;;7.80;5.35;;;0.00;99.90;;;;;;5024552;28;20029;-89
2021/12/03 00:20:25;;;;;;;7.78;5.15;;;0.00;99.90;;;;;;5018556;28;20518;-90
2021/12/03 00:22:55;;;;;;;6.65;4.85;;;0.00;99.90;;;;;;5018533;28;20045;-88
2021/12/03 00:25:21;;;;;;;7.43;4.95;;;0.00;99.90;;;;;;5019291;28;20033;-89
2021/12/03 00:27:47;;;;;;;6.82;4.85;;;0.00;99.90;;;;;;5017013;28;20037;-89
2021/12/03 00:30:17;;;;;;;8.07;4.68;;;0.00;99.90;;;;;;5016366;28;20034;-88
2021/12/03 00:32:44;;;;;;;6.55;4.63;;;0.00;99.90;;;;;;5017582;28;20041;-89
2021/12/03 00:35:11;;;;;;;8.85;5.57;;;0.00;99.90;;;;;;5035371;28;20111;-88
2021/12/03 00:37:39;;;;;;;7.93;4.90;;;0.00;99.90;;;;;;5017608;28;20140;-89
2021/12/03 00:40:07;;;;;;;7.70;5.38;;;0.00;99.90;;;;;;5017387;28;20029;-87
2021/12/03 00:42:38;;;;;;;7.65;5.03;;;0.00;99.90;;;;;;5017398;28;20053;-87
2021/12/03 00:45:14;;;;;;;8.55;5.60;;;-0.10;99.90;;;;;;5013778;28;20033;-86
2021/12/03 00:47:41;;;;;;;6.78;5.35;;;0.00;99.90;;;;;;4996722;28;20038;-87
2021/12/03 00:50:10;;;;;;;8.07;5.78;;;0.00;99.90;;;;;;5010260;28;20068;-88
2021/12/03 00:52:39;;;;;;;7.85;5.85;;;-0.10;99.90;;;;;;5016546;28;20037;-88
2021/12/03 00:55:05;;;;;;;7.80;5.05;;;0.00;99.90;;;;;;5021875;28;20514;-89
2021/12/03 00:57:33;;;;;;;7.43;4.88;;;-0.10;99.90;;;;;;5040066;28;20047;-87
2021/12/03 00:59:59;;;;;;;6.75;4.65;;;-0.10;99.90;;;;;;5031605;28;20064;-85
2021/12/03 01:02:24;;;;;;;7.45;5.38;;;-0.10;99.90;;;;;;5026721;28;20084;-88
2021/12/03 01:04:51;;;;;;;6.15;5.25;;;-0.10;99.90;;;;;;5021731;28;20137;-87
2021/12/03 01:07:16;;;;;;;7.20;4.95;;;-0.10;99.90;;;;;;5021879;28;20029;-89
2021/12/03 01:09:43;;;;;;;7.10;4.95;;;-0.10;99.90;;;;;;5022196;28;20096;-88
2021/12/03 01:12:09;;;;;;;7.22;4.90;;;-0.20;99.90;;;;;;5026306;28;20030;-87
2021/12/03 01:14:36;;;;;;;7.90;5.00;;;-0.20;99.90;;;;;;5023884;28;20391;-89
2021/12/03 01:17:03;;;;;;;7.50;4.53;;;-0.20;99.90;;;;;;5022980;28;20046;-89
2021/12/03 01:19:28;;;;;;;6.57;5.32;;;-0.20;99.90;;;;;;5024220;28;20160;-88
2021/12/03 01:21:54;;;;;;;6.75;5.70;;;-0.20;99.90;;;;;;5021312;28;20060;-88
2021/12/03 01:24:20;;;;;;;7.15;5.63;;;-0.20;99.90;;;;;;5020699;28;20025;-88
2021/12/03 01:26:46;;;;;;;8.63;5.63;;;-0.10;99.90;;;;;;5021139;28;20445;-89
2021/12/03 01:29:12;;;;;;;7.72;5.88;;;-0.10;99.90;;;;;;5020092;28;20048;-89
2021/12/03 01:31:38;;;;;;;8.98;6.05;;;-0.10;99.90;;;;;;5019900;28;20459;-89
2021/12/03 01:34:04;;;;;;;9.10;6.30;;;-0.10;99.90;;;;;;5037399;28;20057;-89
2021/12/03 01:36:30;;;;;;;8.52;6.22;;;-0.10;99.90;;;;;;5019740;28;20045;-89
2021/12/03 01:38:56;;;;;;;8.93;6.70;;;-0.10;99.90;;;;;;5020660;28;20022;-88
2021/12/03 01:41:22;;;;;;;9.38;7.03;;;-0.10;99.90;;;;;;5020620;28;20042;-90
2021/12/03 01:43:48;;;;;;;8.13;6.43;;;-0.10;99.90;;;;;;5020420;28;20065;-88
2021/12/03 01:46:19;;;;;;;12.27;8.23;;;0.00;99.90;;;;;;5020808;28;20050;-89
2021/12/03 01:48:45;;;;;;;10.07;7.57;;;0.00;99.90;;;;;;5038650;28;20529;-89
2021/12/03 01:51:11;;;;;;;9.80;7.65;;;0.00;99.90;;;;;;5021142;28;20041;-90
2021/12/03 01:53:38;;;;;;;10.98;7.78;;;0.10;99.90;;;;;;5019782;28;20029;-90
2021/12/03 01:56:08;;;;;;;12.52;9.75;;;0.00;99.90;;;;;;5027724;28;20026;-88
2021/12/03 01:58:35;;;;;;;13.32;9.90;;;0.10;99.90;;;;;;5020626;28;20032;-86
2021/12/03 02:01:05;;;;;;;14.68;9.93;;;0.10;99.90;;;;;;5037563;28;20032;-88
2021/12/03 02:03:33;;;;;;;13.05;9.63;;;0.10;99.90;;;;;;5025928;28;20033;-89
2021/12/03 02:06:00;;;;;;;11.35;8.73;;;0.10;99.90;;;;;;5035012;28;20061;-92
2021/12/03 02:08:27;;;;;;;15.13;9.43;;;0.10;99.90;;;;;;5018131;28;20483;-90
2021/12/03 02:10:53;;;;;;;13.55;10.27;;;0.20;99.90;;;;;;5019708;28;20128;-88
2021/12/03 02:13:19;;;;;;;13.23;8.95;;;0.20;99.90;;;;;;5018428;28;20200;-88
2021/12/03 02:15:45;;;;;;;14.35;9.30;;;0.20;99.90;;;;;;5035271;28;20038;-87
2021/12/03 02:18:12;;;;;;;11.65;8.80;;;0.20;99.90;;;;;;5018598;28;20047;-88
2021/12/03 02:20:47;;;;;;;12.70;8.70;;;0.20;99.90;;;;;;5018357;28;20478;-89
2021/12/03 02:23:14;;;;;;;12.18;9.05;;;0.20;99.90;;;;;;5018063;28;20033;-89
2021/12/03 02:25:42;;;;;;;14.65;9.98;;;0.20;99.90;;;;;;5017604;28;20017;-87
2021/12/03 02:28:07;;;;;;;14.68;10.65;;;0.20;99.90;;;;;;5016882;28;20025;-91
2021/12/03 02:30:33;;;;;;;13.55;10.90;;;0.20;99.90;;;;;;5034787;28;20033;-88
2021/12/03 02:32:59;;;;;;;14.07;10.75;;;0.20;99.90;;;;;;5018793;28;20091;-91
2021/12/03 02:35:25;;;;;;;13.48;10.13;;;0.30;99.90;;;;;;5018349;28;20065;-89
2021/12/03 02:37:52;;;;;;;13.60;10.93;;;0.30;99.90;;;;;;5020649;28;20144;-88
2021/12/03 02:40:18;;;;;;;14.93;10.90;;;0.30;99.90;;;;;;5019558;28;20093;-90
2021/12/03 02:42:44;;;;;;;13.48;10.07;;;0.30;99.90;;;;;;5019470;28;20509;-91
2021/12/03 02:45:12;;;;;;;15.75;11.43;;;0.30;99.90;;;;;;5019752;28;20029;-88
2021/12/03 02:47:38;;;;;;;15.43;11.52;;;0.30;99.90;;;;;;5019998;28;20120;-91
2021/12/03 02:50:06;;;;;;;17.48;12.48;;;0.40;99.90;;;;;;5020242;28;20072;-90
2021/12/03 02:52:33;;;;;;;16.75;11.93;;;0.40;99.90;;;;;;5019728;28;20022;-91
2021/12/03 02:54:58;;;;;;;16.77;12.77;;;0.40;99.90;;;;;;5018627;28;20471;-90
2021/12/03 02:57:24;;;;;;;16.63;12.82;;;0.40;99.90;;;;;;5019002;28;20117;-90
2021/12/03 02:59:50;;;;;;;15.68;11.18;;;0.50;99.90;;;;;;5020374;28;20483;-89
2021/12/03 03:02:17;;;;;;;14.98;11.07;;;0.50;99.90;;;;;;5024469;28;20057;-86
2021/12/03 03:04:43;;;;;;;15.07;11.45;;;0.50;99.90;;;;;;5023092;28;20030;-85
2021/12/03 03:07:08;;;;;;;15.20;11.38;;;0.50;99.90;;;;;;5024398;28;20415;-88
2021/12/03 03:09:34;;;;;;;15.60;11.63;;;0.50;99.90;;;;;;5023360;28;20030;-87
2021/12/03 03:12:00;;;;;;;22.35;12.98;;;0.50;99.90;;;;;;5027578;28;20032;-88
2021/12/03 03:14:26;;;;;;;16.60;11.77;;;0.50;99.90;;;;;;5027543;28;20025;-87
2021/12/03 03:16:53;;;;;;;21.90;13.00;;;0.50;99.90;;;;;;5025615;28;20097;-88
2021/12/03 03:19:22;;;;;;;19.35;13.20;;;0.40;99.90;;;;;;5021136;28;20099;-89
2021/12/03 03:21:48;;;;;;;17.35;12.70;;;0.50;99.90;;;;;;5021925;28;20395;-89
2021/12/03 03:24:15;;;;;;;16.15;12.38;;;0.50;99.90;;;;;;5021987;28;20041;-86
2021/12/03 03:26:43;;;;;;;20.67;14.98;;;0.50;99.90;;;;;;5021108;28;20514;-90
2021/12/03 03:29:11;;;;;;;23.05;15.98;;;0.50;99.90;;;;;;5021052;28;20101;-88
2021/12/03 03:31:38;;;;;;;22.65;16.30;;;0.50;99.90;;;;;;5021216;28;20040;-88
2021/12/03 03:34:05;;;;;;;26.38;18.60;;;0.50;99.90;;;;;;5021267;28;20031;-90
2021/12/03 03:36:39;;;;;;;22.40;17.60;;;0.50;99.90;;;;;;5038177;28;20065;-89
2021/12/03 03:39:07;;;;;;;26.42;18.42;;;0.60;99.90;;;;;;5020672;28;20036;-89
2021/12/03 03:41:34;;;;;;;25.02;18.58;;;0.60;99.90;;;;;;5022704;28;20155;-90
2021/12/03 03:44:00;;;;;;;24.92;18.48;;;0.60;99.90;;;;;;5022161;28;20034;-89
2021/12/03 03:46:26;;;;;;;27.70;20.10;;;0.60;99.90;;;;;;5022677;28;20029;-90
2021/12/03 03:48:52;;;;;;;25.02;19.33;;;0.60;99.90;;;;;;5021031;28;20026;-89
2021/12/03 03:51:17;;;;;;;31.70;21.80;;;0.70;99.90;;;;;;5022058;28;20372;-89
2021/12/03 03:53:43;;;;;;;36.60;25.50;;;0.70;99.90;;;;;;5022541;28;20037;-89
2021/12/03 03:56:10;;;;;;;31.13;22.95;;;0.70;99.90;;;;;;5022973;28;20037;-91
2021/12/03 03:58:37;;;;;;;38.50;28.38;;;0.80;99.90;;;;;;5022580;28;20037;-90
2021/12/03 04:01:04;;;;;;;46.28;29.02;;;0.90;99.90;;;;;;5022654;28;20661;-90
2021/12/03 04:03:30;;;;;;;41.47;28.33;;;0.90;99.90;;;;;;5022787;28;20125;-90
2021/12/03 04:05:57;;;;;;;37.78;25.20;;;0.90;99.90;;;;;;5022617;28;20061;-90
2021/12/03 04:08:23;;;;;;;36.30;25.10;;;1.00;99.90;;;;;;5021447;28;20052;-90
2021/12/03 04:10:49;;;;;;;40.53;27.25;;;1.00;99.90;;;;;;5022553;28;20037;-91
2021/12/03 04:13:15;;;;;;;36.25;24.92;;;1.00;99.90;;;;;;5021962;28;20022;-91
2021/12/03 04:15:42;;;;;;;45.65;29.13;;;1.10;99.90;;;;;;5022754;28;20052;-88
2021/12/03 04:18:08;;;;;;;44.80;29.50;;;1.10;99.90;;;;;;5022378;28;20471;-90
2021/12/03 04:20:35;;;;;;;41.85;25.83;;;1.10;99.90;;;;;;5039067;28;20040;-91
2021/12/03 04:23:01;;;;;;;46.13;30.65;;;1.20;99.90;;;;;;5022764;28;20033;-92
2021/12/03 04:25:26;;;;;;;47.50;30.67;;;1.20;99.90;;;;;;5022666;28;20087;-90
2021/12/03 04:27:52;;;;;;;50.20;32.40;;;1.20;99.90;;;;;;5021825;28;20029;-90
2021/12/03 04:30:22;;;;;;;48.97;31.33;;;1.30;99.90;;;;;;5021322;28;20068;-91
2021/12/03 04:32:52;;;;;;;43.75;28.70;;;1.30;99.90;;;;;;5022510;28;20033;-91
2021/12/03 04:35:18;;;;;;;43.55;27.58;;;1.30;99.90;;;;;;5021720;28;20037;-87
2021/12/03 04:37:44;;;;;;;46.05;29.65;;;1.30;99.90;;;;;;5022424;28;20096;-90
2021/12/03 04:40:12;;;;;;;58.10;34.75;;;1.30;99.90;;;;;;5022195;28;20029;-91
2021/12/03 04:42:38;;;;;;;55.47;32.00;;;1.30;99.90;;;;;;5022205;28;20037;-90
2021/12/03 04:45:08;;;;;;;49.83;32.78;;;1.30;99.90;;;;;;5022405;28;20036;-92
2021/12/03 04:47:34;;;;;;;57.75;33.20;;;1.30;99.90;;;;;;5021361;28;20044;-90
2021/12/03 04:49:59;;;;;;;58.65;34.85;;;1.40;99.90;;;;;;5021033;28;20033;-91
2021/12/03 04:52:25;;;;;;;72.65;39.55;;;1.40;99.90;;;;;;5022602;28;20418;-91
2021/12/03 04:54:52;;;;;;;65.13;36.45;;;1.40;99.90;;;;;;5022622;28;20114;-89
2021/12/03 04:57:18;;;;;;;61.38;35.20;;;1.40;99.90;;;;;;5022417;28;20026;-90
2021/12/03 04:59:44;;;;;;;69.28;36.58;;;1.40;99.90;;;;;;5024153;28;20052;-92
2021/12/03 05:02:10;;;;;;;65.28;34.20;;;1.50;99.90;;;;;;5024556;28;20033;-91
2021/12/03 05:04:37;;;;;;;76.68;37.38;;;1.50;99.90;;;;;;5029291;28;20121;-89
2021/12/03 05:07:26;;;;;;;93.47;42.55;;;1.50;99.90;;;;;;5030565;28;20041;-87
2021/12/03 05:09:50;;;;;;;89.35;40.75;;;1.50;99.90;;;;;;5044068;28;20387;-88
2021/12/03 05:12:16;;;;;;;86.82;41.00;;;1.50;99.90;;;;;;5027121;28;20029;-87
2021/12/03 05:14:42;;;;;;;93.57;40.30;;;1.50;99.90;;;;;;5031409;28;20029;-87
2021/12/03 05:17:08;;;;;;;88.07;39.10;;;1.60;99.90;;;;;;5027352;28;20029;-89
2021/12/03 05:19:33;;;;;;;91.80;41.05;;;1.60;99.90;;;;;;5023400;28;20495;-90
2021/12/03 05:21:59;;;;;;;83.78;39.67;;;1.60;99.90;;;;;;5024538;28;20041;-89
2021/12/03 05:24:25;;;;;;;87.10;38.13;;;1.60;99.90;;;;;;5023282;28;20125;-89
2021/12/03 05:26:54;;;;;;;88.40;37.83;;;1.60;99.90;;;;;;5022795;28;20025;-89
2021/12/03 05:29:20;;;;;;;81.20;35.50;;;1.60;99.90;;;;;;5022868;28;20041;-90
2021/12/03 05:31:46;;;;;;;80.22;37.75;;;1.60;99.90;;;;;;5020879;28;20033;-90
2021/12/03 05:34:12;;;;;;;74.70;36.00;;;1.60;99.90;;;;;;5020888;28;20117;-88
2021/12/03 05:36:38;;;;;;;86.80;39.45;;;1.60;99.90;;;;;;5003695;28;20152;-90
2021/12/03 05:39:05;;;;;;;78.22;34.80;;;1.60;99.90;;;;;;5003450;28;20026;-90
2021/12/03 05:41:33;;;;;;;87.93;38.65;;;1.60;99.90;;;;;;5005769;28;20041;-89
2021/12/03 05:43:58;;;;;;;83.28;39.58;;;1.70;99.90;;;;;;5002295;28;20099;-90
2021/12/03 05:46:24;;;;;;;97.57;41.50;;;1.70;99.90;;;;;;5003707;28;20072;-88
2021/12/03 05:48:50;;;;;;;89.45;41.80;;;1.70;99.90;;;;;;5010966;28;20049;-85
2021/12/03 05:51:16;;;;;;;90.40;42.75;;;1.70;99.90;;;;;;5016348;28;20036;-88
2021/12/03 05:53:41;;;;;;;92.25;40.97;;;1.70;99.90;;;;;;5011924;28;20026;-89
2021/12/03 05:56:07;;;;;;;96.13;43.75;;;1.70;99.90;;;;;;5017057;28;20029;-89
2021/12/03 05:58:33;;;;;;;109.55;47.28;;;1.70;99.90;;;;;;5018206;28;20042;-90
2021/12/03 06:00:59;;;;;;;103.68;46.33;;;1.80;99.90;;;;;;5015493;28;20041;-90
2021/12/03 06:03:24;;;;;;;101.75;43.90;;;1.80;99.90;;;;;;5021075;28;20018;-91
2021/12/03 06:05:50;;;;;;;99.05;43.80;;;1.80;99.90;;;;;;5018668;28;20021;-90
2021/12/03 06:08:16;;;;;;;93.60;43.78;;;1.80;99.90;;;;;;5016921;28;20042;-91
2021/12/03 06:10:44;;;;;;;92.53;41.67;;;1.80;99.90;;;;;;5018932;28;20059;-90
2021/12/03 06:13:10;;;;;;;94.35;42.08;;;1.80;99.90;;;;;;5014008;28;20030;-91
2021/12/03 06:15:38;;;;;;;89.65;42.95;;;1.80;99.90;;;;;;5018456;28;20038;-90
2021/12/03 06:18:04;;;;;;;97.07;43.58;;;1.80;99.90;;;;;;5004306;28;20061;-91
2021/12/03 06:20:30;;;;;;;102.38;44.92;;;1.90;99.90;;;;;;5001543;28;20484;-90
2021/12/03 06:22:56;;;;;;;100.68;43.88;;;1.90;99.90;;;;;;5001287;28;20411;-86
2021/12/03 06:25:22;;;;;;;91.05;42.88;;;1.90;99.90;;;;;;5000600;28;20121;-90
2021/12/03 06:27:49;;;;;;;92.82;41.53;;;1.90;99.90;;;;;;5002122;28;20026;-90
2021/12/03 06:30:19;;;;;;;87.25;40.78;;;1.90;99.90;;;;;;5001363;28;20034;-89
2021/12/03 06:32:45;;;;;;;90.38;42.00;;;1.90;99.90;;;;;;5020620;28;20026;-90
2021/12/03 06:35:16;;;;;;;100.25;45.83;;;2.00;99.90;;;;;;5008179;28;20050;-90
2021/12/03 06:37:43;;;;;;;90.90;42.15;;;2.00;99.90;;;;;;5021697;28;20376;-90
2021/12/03 06:40:16;;;;;;;94.60;41.20;;;2.00;99.90;;;;;;5021562;28;20101;-90
2021/12/03 06:42:42;;;;;;;94.40;42.43;;;2.00;99.90;;;;;;5020922;28;20097;-91
2021/12/03 06:45:09;;;;;;;99.35;42.92;;;2.00;99.90;;;;;;5021058;28;20506;-88
2021/12/03 06:47:35;;;;;;;84.15;40.17;;;2.00;99.90;;;;;;5019845;28;20068;-90
2021/12/03 06:50:03;;;;;;;93.32;40.20;;;2.10;99.90;;;;;;5020724;28;20038;-90
2021/12/03 06:52:30;;;;;;;89.80;39.55;;;2.00;99.90;;;;;;5020506;28;20030;-90
2021/12/03 06:54:58;;;;;;;87.38;40.65;;;2.10;99.90;;;;;;5025514;28;20061;-90
2021/12/03 06:57:24;;;;;;;87.53;39.67;;;2.10;99.90;;;;;;5028299;28;20021;-90
2021/12/03 06:59:50;;;;;;;97.15;43.08;;;2.10;99.90;;;;;;5025790;28;20029;-90
2021/12/03 07:02:16;;;;;;;80.43;37.17;;;2.10;99.90;;;;;;5026533;28;20038;-88
2021/12/03 07:04:43;;;;;;;80.47;40.38;;;2.10;99.90;;;;;;5026611;28;20034;-87
2021/12/03 07:07:10;;;;;;;73.18;35.90;;;2.10;99.90;;;;;;5023654;28;20033;-87
2021/12/03 07:09:35;;;;;;;75.65;33.63;;;2.10;99.90;;;;;;5022822;28;20030;-90
2021/12/03 07:12:01;;;;;;;71.43;34.10;;;2.10;99.90;;;;;;5023101;28;20102;-90
2021/12/03 07:14:27;;;;;;;65.60;33.95;;;2.10;99.90;;;;;;5022441;28;20030;-88
2021/12/03 07:16:57;;;;;;;72.63;33.28;;;2.10;99.90;;;;;;5022472;28;20087;-88
2021/12/03 07:19:23;;;;;;;63.85;31.77;;;2.20;99.90;;;;;;5022640;28;20491;-90
2021/12/03 07:21:52;;;;;;;70.60;31.52;;;2.10;99.90;;;;;;5022479;28;20048;-90
2021/12/03 07:24:17;;;;;;;64.65;30.63;;;2.10;99.90;;;;;;5021646;28;20021;-91
2021/12/03 07:26:43;;;;;;;57.17;30.00;;;2.20;99.90;;;;;;5022924;28;20099;-90
2021/12/03 07:29:11;;;;;;;57.47;29.38;;;2.20;99.90;;;;;;5022357;28;20026;-91
2021/12/03 07:31:38;;;;;;;49.58;25.83;;;2.20;99.90;;;;;;5039638;28;20038;-89
2021/12/03 07:34:07;;;;;;;59.60;28.35;;;2.20;99.90;;;;;;5022307;28;20029;-91
2021/12/03 07:36:32;;;;;;;51.78;28.23;;;2.20;99.90;;;;;;5023736;28;20103;-90
2021/12/03 07:38:58;;;;;;;54.22;26.80;;;2.20;99.90;;;;;;5023680;28;20116;-87
2021/12/03 07:41:24;;;;;;;46.30;25.17;;;2.20;99.90;;;;;;5022741;28;20037;-89
2021/12/03 07:43:49;;;;;;;49.70;24.52;;;2.20;99.90;;;;;;5023594;28;20037;-91
2021/12/03 07:46:15;;;;;;;46.95;23.92;;;2.20;99.90;;;;;;5022979;28;20041;-89
2021/12/03 07:48:46;;;;;;;45.08;24.08;;;2.20;99.90;;;;;;5022232;28;20087;-90
2021/12/03 07:51:13;;;;;;;44.58;23.13;;;2.20;99.90;;;;;;5023237;28;20032;-90
2021/12/03 07:53:39;;;;;;;40.20;21.80;;;2.30;99.90;;;;;;5024015;28;20033;-92
2021/12/03 07:56:05;;;;;;;39.00;20.20;;;2.30;99.90;;;;;;5040072;28;20108;-91
2021/12/03 07:58:31;;;;;;;35.92;18.60;;;2.30;99.90;;;;;;5040301;28;20049;-89
2021/12/03 08:00:57;;;;;;;36.38;17.75;;;2.30;99.90;;;;;;5039898;28;20565;-90
2021/12/03 08:03:24;;;;;;;34.55;17.13;;;2.30;99.90;;;;;;5023211;28;20040;-89
2021/12/03 08:05:50;;;;;;;36.08;18.60;;;2.30;99.90;;;;;;5023191;28;20394;-90
2021/12/03 08:08:23;;;;;;;35.53;15.85;;;2.30;99.90;;;;;;5023097;28;20049;-88
2021/12/03 08:10:50;;;;;;;35.17;15.65;;;2.40;99.90;;;;;;5021532;28;20041;-89
2021/12/03 08:13:16;;;;;;;28.92;14.27;;;2.40;99.90;;;;;;5023006;28;20438;-89
2021/12/03 08:15:42;;;;;;;27.55;14.48;;;2.50;99.90;;;;;;5023544;28;20034;-90
2021/12/03 08:18:08;;;;;;;27.55;13.43;;;2.40;99.90;;;;;;5023610;28;20475;-89
2021/12/03 08:20:34;;;;;;;28.23;13.32;;;2.40;99.90;;;;;;5022345;28;20036;-88
2021/12/03 08:23:01;;;;;;;36.25;15.70;;;2.40;99.90;;;;;;5019459;28;20045;-89
2021/12/03 08:25:29;;;;;;;22.10;12.95;;;2.40;99.90;;;;;;5020614;28;20053;-87
2021/12/03 08:27:55;;;;;;;29.42;12.18;;;2.40;99.90;;;;;;5021108;28;20029;-88
2021/12/03 08:30:21;;;;;;;21.98;11.23;;;2.40;99.90;;;;;;5019170;28;20030;-87
2021/12/03 08:32:48;;;;;;;23.52;12.23;;;2.50;99.90;;;;;;5019469;28;20402;-89
2021/12/03 08:35:14;;;;;;;23.95;11.43;;;2.50;99.90;;;;;;5019692;28;20052;-88
2021/12/03 08:37:44;;;;;;;24.98;11.57;;;2.50;99.90;;;;;;5021358;28;20033;-87
2021/12/03 08:40:11;;;;;;;23.95;10.95;;;2.60;99.90;;;;;;5021464;28;20025;-88
2021/12/03 08:42:37;;;;;;;25.10;11.75;;;2.50;99.90;;;;;;5019533;28;20041;-86
2021/12/03 08:45:04;;;;;;;25.70;11.38;;;2.60;99.90;;;;;;5019164;28;20033;-86
2021/12/03 08:47:32;;;;;;;26.65;11.05;;;2.60;99.90;;;;;;5018656;28;20037;-86
2021/12/03 08:50:00;;;;;;;24.70;10.15;;;2.60;99.90;;;;;;5018882;28;20026;-86
2021/12/03 08:52:50;;;;;;;20.17;11.10;;;2.60;99.90;;;;;;5018096;28;20187;-86
2021/12/03 08:55:16;;;;;;;24.27;11.27;;;2.60;99.90;;;;;;5019818;28;20495;-87
2021/12/03 08:57:41;;;;;;;18.50;9.55;;;2.70;99.90;;;;;;5018124;28;20045;-87
2021/12/03 09:00:16;;;;;;;20.00;9.13;;;2.70;99.90;;;;;;5019067;28;20353;-87
2021/12/03 09:02:43;;;;;;;17.63;8.88;;;2.70;99.90;;;;;;5017532;28;20068;-89
2021/12/03 09:05:09;;;;;;;20.65;8.85;;;2.80;99.90;;;;;;5017241;28;20101;-89
2021/12/03 09:07:36;;;;;;;18.40;9.13;;;2.80;99.90;;;;;;5018855;28;20041;-90
2021/12/03 09:10:04;;;;;;;18.00;8.38;;;2.80;99.90;;;;;;5036202;28;20507;-87
2021/12/03 09:12:30;;;;;;;18.92;9.50;;;2.80;99.90;;;;;;5035605;28;20029;-87
2021/12/03 09:15:08;;;;;;;20.67;9.10;;;2.80;99.90;;;;;;5018419;28;20042;-88
2021/12/03 09:20:40;;;;;;;17.83;8.55;;;2.80;99.90;;;;;;5037341;28;20137;-90
2021/12/03 09:23:34;;;;;;;20.20;8.50;;;2.90;99.90;;;;;;5017863;28;20128;-92
2021/12/03 09:25:56;;;;;;;19.13;8.15;;;2.90;99.90;;;;;;5036143;28;20033;-89
2021/12/03 09:28:26;;;;;;;21.77;8.73;;;3.00;99.90;;;;;;5036892;28;20503;-91
2021/12/03 09:30:52;;;;;;;21.40;8.65;;;3.00;99.90;;;;;;5035317;28;20067;-91
2021/12/03 09:33:22;;;;;;;18.02;7.68;;;3.00;99.90;;;;;;5016683;28;20026;-89
2021/12/03 09:35:52;;;;;;;25.95;8.82;;;3.00;99.90;;;;;;5016722;28;20072;-89
2021/12/03 09:38:18;;;;;;;20.73;8.35;;;3.00;99.90;;;;;;5017241;28;20034;-87
2021/12/03 09:40:44;;;;;;;20.02;7.57;;;3.10;99.90;;;;;;5015770;28;20036;-87
2021/12/03 09:43:10;;;;;;;21.13;7.70;;;3.10;99.90;;;;;;5016680;28;20487;-90
2021/12/03 09:45:36;;;;;;;17.42;6.97;;;3.10;99.90;;;;;;5016907;28;20065;-88
2021/12/03 09:48:13;;;;;;;23.50;7.97;;;3.10;99.90;;;;;;5016842;28;20091;-90
2021/12/03 09:50:39;;;;;;;20.85;6.97;;;3.10;99.90;;;;;;5017119;28;20033;-86
2021/12/03 09:53:41;;;;;;;21.50;6.78;;;3.10;99.90;;;;;;5035462;28;20036;-88
2021/12/03 09:55:51;;;;;;;16.92;6.38;;;3.10;99.90;;;;;;5034562;28;20056;-88
2021/12/03 09:58:36;;;;;;;14.68;6.15;;;3.10;99.90;;;;;;5017624;28;20652;-90
2021/12/03 10:01:11;;;;;;;18.73;6.35;;;3.10;99.90;;;;;;5019795;28;20029;-90
2021/12/03 10:30:08;;;;;;;15.73;5.03;;;3.40;99.90;;;;;;5031039;28;20044;-89
2021/12/03 10:32:53;;;;;;;16.23;5.57;;;3.40;99.90;;;;;;5010680;28;20043;-91
2021/12/03 10:41:15;;;;;;;15.48;4.18;;;3.40;99.90;;;;;;5019881;28;20060;-90
2021/12/03 11:47:18;;;;;;;14.70;6.38;;;3.90;99.90;;;;;;5055259;28;20097;-90
2021/12/03 12:39:09;;;;;;;15.82;7.05;;;4.70;99.90;;;;;;5038704;28;20414;-90
2021/12/03 13:01:21;;;;;;;11.90;5.60;;;4.80;99.90;;;;;;5019502;28;20034;-86
2021/12/03 13:17:38;;;;;;;11.73;4.50;;;4.80;99.90;;;;;;5039068;28;20033;-90
2021/12/03 13:20:18;;;;;;;13.48;5.50;;;4.80;99.90;;;;;;5035015;28;20495;-88
2021/12/03 13:26:20;;;;;;;8.40;4.40;;;4.80;99.90;;;;;;5034902;28;20132;-90
2021/12/03 13:29:39;;;;;;;9.48;4.68;;;4.80;99.90;;;;;;5033166;28;20037;-90
2021/12/03 13:38:30;;;;;;;12.57;4.82;;;4.80;99.90;;;;;;5035278;28;20080;-88
2021/12/03 14:25:24;;;;;;;7.20;3.90;;;4.60;99.90;;;;;;5038229;28;20487;-90
2021/12/03 14:48:26;;;;;;;12.15;4.28;;;4.30;99.90;;;;;;5023675;28;20135;-91
2021/12/03 14:56:09;;;;;;;9.85;4.30;;;4.20;99.90;;;;;;5045022;28;20446;-93
2021/12/03 15:24:40;;;;;;;10.02;5.60;;;3.90;99.90;;;;;;5038965;28;20044;-90
2021/12/03 15:33:01;;;;;;;9.85;5.57;;;3.80;99.90;;;;;;5038286;28;20112;-91
2021/12/03 16:04:49;;;;;;;8.82;6.85;;;3.90;99.90;;;;;;5029037;28;20096;-86
2021/12/03 16:11:19;;;;;;;10.95;8.15;;;3.90;99.90;;;;;;4999351;28;20037;-87
2021/12/03 16:13:32;;;;;;;9.95;7.70;;;3.90;99.90;;;;;;5019272;28;20398;-88
2021/12/03 16:51:41;;;;;;;12.70;10.35;;;4.00;99.90;;;;;;5059397;28;20051;-91
2021/12/03 16:54:08;;;;;;;13.63;11.38;;;4.00;99.90;;;;;;5050597;28;20045;-90
2021/12/03 16:56:36;;;;;;;13.85;11.77;;;4.00;99.90;;;;;;5036919;28;20017;-89
2021/12/03 16:59:03;;;;;;;13.77;11.98;;;4.00;99.90;;;;;;5026642;28;20037;-90
2021/12/03 17:09:48;;;;;;;14.10;10.98;;;4.00;99.90;;;;;;5056917;28;20029;-93
2021/12/03 17:25:21;;;;;;;14.75;12.40;;;4.10;99.90;;;;;;5056947;28;20274;-92
2021/12/03 17:50:06;;;;;;;15.32;13.20;;;4.10;99.90;;;;;;4988378;28;20061;-90
2021/12/03 18:00:20;;;;;;;13.25;11.45;;;4.20;99.90;;;;;;5037056;28;20061;-90
2021/12/03 18:02:49;;;;;;;12.85;10.55;;;4.20;99.90;;;;;;5036260;28;20040;-92
2021/12/03 18:08:08;;;;;;;12.70;11.40;;;4.20;99.90;;;;;;5058988;28;20499;-89
2021/12/03 18:48:54;;;;;;;13.35;11.95;;;4.20;99.90;;;;;;5014426;28;20041;-92
2021/12/03 18:58:59;;;;;;;13.98;12.48;;;4.20;99.90;;;;;;5043680;28;20034;-89
2021/12/03 19:01:29;;;;;;;13.88;11.98;;;4.30;99.90;;;;;;5025835;28;20034;-91
2021/12/03 19:08:56;;;;;;;17.92;16.10;;;4.30;99.90;;;;;;5038843;28;20053;-91
2021/12/03 19:11:33;;;;;;;18.40;16.42;;;4.30;99.90;;;;;;5019965;28;20124;-89
2021/12/03 19:14:30;;;;;;;17.13;15.32;;;4.30;99.90;;;;;;5021543;28;20073;-92
2021/12/03 19:16:59;;;;;;;17.73;15.68;;;4.30;99.90;;;;;;5022391;28;20029;-90
2021/12/03 19:19:30;;;;;;;19.67;17.58;;;4.30;99.90;;;;;;5024386;28;20033;-94
2021/12/03 19:21:58;;;;;;;21.55;19.05;;;4.30;99.90;;;;;;5025553;28;20041;-93
2021/12/03 19:24:26;;;;;;;18.58;16.48;;;4.30;99.90;;;;;;5022874;28;20057;-93
2021/12/03 19:26:58;;;;;;;18.45;16.42;;;4.30;99.90;;;;;;5024755;28;20071;-95
2021/12/03 19:29:27;;;;;;;18.92;16.88;;;4.20;99.90;;;;;;5030362;28;20095;-90
2021/12/03 19:31:53;;;;;;;17.95;16.05;;;4.30;99.90;;;;;;5030376;23;20057;-90
2021/12/03 19:34:25;;;;;;;18.13;15.88;;;4.30;99.90;;;;;;5002939;28;20028;-89
2021/12/03 19:36:53;;;;;;;17.97;16.07;;;4.30;99.90;;;;;;4988298;28;20511;-89
2021/12/03 19:39:24;;;;;;;19.23;17.15;;;4.30;99.90;;;;;;5019008;28;20269;-92
2021/12/03 19:44:23;;;;;;;18.45;16.35;;;4.30;99.90;;;;;;5020263;28;20422;-92
2021/12/03 19:46:51;;;;;;;18.92;16.90;;;4.30;99.90;;;;;;5003608;28;20036;-93
2021/12/03 19:49:30;;;;;;;21.02;17.55;;;4.30;99.90;;;;;;5004550;28;20033;-90
2021/12/03 19:52:00;;;;;;;18.58;16.65;;;4.30;99.90;;;;;;5003172;28;20036;-91
2021/12/03 19:54:27;;;;;;;18.45;16.45;;;4.30;99.90;;;;;;5003573;28;20442;-90
2021/12/03 19:56:52;;;;;;;18.73;16.70;;;4.30;99.90;;;;;;5003228;28;20049;-92
2021/12/03 19:59:19;;;;;;;18.63;16.60;;;4.30;99.90;;;;;;5003537;28;20061;-89
2021/12/03 20:01:46;;;;;;;17.77;15.88;;;4.30;99.90;;;;;;5002765;28;20100;-93
2021/12/03 20:04:15;;;;;;;18.63;16.63;;;4.30;99.90;;;;;;5004482;28;20018;-92
2021/12/03 20:06:44;;;;;;;19.40;16.98;;;4.30;99.90;;;;;;5003186;28;20495;-93
2021/12/03 20:09:22;;;;;;;18.77;16.33;;;4.30;99.90;;;;;;5002808;28;20038;-91
2021/12/03 20:11:51;;;;;;;19.23;16.67;;;4.30;99.90;;;;;;5002911;28;20037;-90
2021/12/03 20:14:19;;;;;;;19.88;16.80;;;4.30;99.90;;;;;;5003003;28;20049;-91
2021/12/03 20:19:22;;;;;;;19.33;16.63;;;4.30;99.90;;;;;;5019848;28;20034;-88
2021/12/03 20:21:55;;;;;;;16.27;14.50;;;4.30;99.90;;;;;;5003626;28;20034;-93
2021/12/03 20:26:58;;;;;;;18.33;15.02;;;4.30;99.90;;;;;;5021774;28;20609;-90
2021/12/03 20:32:36;;;;;;;19.23;15.68;;;4.30;99.90;;;;;;5031153;28;20057;-93
2021/12/03 20:35:07;;;;;;;19.40;15.90;;;4.30;99.90;;;;;;5037773;28;20033;-93
2021/12/03 20:37:51;;;;;;;16.10;14.38;;;4.30;99.90;;;;;;5021898;28;20030;-91
2021/12/03 20:40:24;;;;;;;18.08;15.98;;;4.30;99.90;;;;;;5024310;28;20033;-90
2021/12/03 20:48:18;;;;;;;17.02;13.35;;;4.40;99.90;;;;;;5041655;28;20037;-94